Huvudsida
METAR-TAF:

METAR-TAF

Flygplatser :

Singapore Changi flygplats

Singapore, Singapore

latitud: 01-22N, longitud: 103-59E, höjd: 5 m

Aktuellt väderrapport

Denna rapport gjordes för 29 minuter sedan, klockan 20:30 UTC
Vind 6 kt från nord/nordväst
Temperatur 26°C
Fuktighet 89%
Tryck 1011 hPa
Sikt: 9000 m
Få moln på en höjd av 1800 ft
Brutna moln på en höjd av 30000 ft

METAR: WSSS 222030Z 34006KT 9000 FEW018 BKN300 26/24 Q1011 NOSIG

Tid: 04:59 (20:59 UTC)

Väderprognos

Denna rapport gjordes för 3 timmar och 59 minuter sedan, klockan 17:00 UTC
Prognos gäller från 22 kl. 18 UTC till 24 kl. 00 UTC
Vind 10 kt från nord/nordost
Sikt 10 km eller mer
Få moln på en höjd av 1500 ft
Spridda moln på en höjd av 2000 ft
Temporärt
från 23 kl. 07 UTC till 23 kl. 10 UTC
Sikt: 3000 m
Få moln på en höjd av 1200 ft, Cumulonimbus.
Brutna moln på en höjd av 1500 ft
åska, regn,

TAF: WSSS 221700Z 2218/2400 02010KT 9999 FEW015 SCT020 TEMPO 2307/2310 3000 TSRA FEW012CB BKN015

Aktuella väderrapporter och prognoser från 4000 flygplatser (METAR- och TAF-rapporter).

De tillgängliga stationerna syns som gula och röda prickar på kartan.

För musen över prickarna för att se namnen på stationerna.

Klicka sedan för att få väderrapporter och prognoser.

För att ändra kartan: Klicka på de gröna knapparna med ett svart kors på för att zooma in; den gröna knappen med ett streck på för att zooma ut; eller på de gröna pilarna för angränsande kartor.


METAR-TAF: